Terminal Aerodrome Forecast
Issued by NWS

Home | Current Version | Previous Version | Text Only | Print | Product List | Glossary On
Versions: 1 2 3 4 5 6 7 8 9 10 11 12 13 14 15 16 17 18
000
FTUS46 KPDT 241741
TAFALW
TAF
KALW 241741Z 2418/2518 20008G15KT P6SM -RA SCT040 OVC050
     FM242200 18008G15KT P6SM -RA SCT025 OVC040
     FM250000 19007KT P6SM VCSH OVC050
     FM250600 VRB05KT P6SM OVC100=

USA.gov is the U.S. government's official web portal to all federal, state and local government web resources and services.